sensor_id;sensor_type;location;lat;lon;timestamp;P1;durP1;ratioP1;P2;durP2;ratioP2
73100;SDS011;61288;53.446;-2.266;2024-02-04T00:00:26;11.60;;;2.40;;
73100;SDS011;61288;53.446;-2.266;2024-02-04T00:02:55;8.48;;;2.28;;
73100;SDS011;61288;53.446;-2.266;2024-02-04T00:05:22;14.25;;;2.78;;
73100;SDS011;61288;53.446;-2.266;2024-02-04T00:07:48;12.52;;;2.95;;
73100;SDS011;61288;53.446;-2.266;2024-02-04T00:10:14;13.70;;;2.72;;
73100;SDS011;61288;53.446;-2.266;2024-02-04T00:12:41;11.88;;;2.35;;
73100;SDS011;61288;53.446;-2.266;2024-02-04T00:15:06;17.45;;;2.35;;
73100;SDS011;61288;53.446;-2.266;2024-02-04T00:17:33;14.80;;;2.40;;
73100;SDS011;61288;53.446;-2.266;2024-02-04T00:20:02;12.27;;;2.55;;
73100;SDS011;61288;53.446;-2.266;2024-02-04T00:22:31;13.32;;;2.35;;
73100;SDS011;61288;53.446;-2.266;2024-02-04T00:24:58;7.82;;;2.33;;
73100;SDS011;61288;53.446;-2.266;2024-02-04T00:27:33;11.18;;;2.20;;
73100;SDS011;61288;53.446;-2.266;2024-02-04T00:29:59;8.07;;;1.98;;
73100;SDS011;61288;53.446;-2.266;2024-02-04T00:32:24;10.90;;;2.28;;
73100;SDS011;61288;53.446;-2.266;2024-02-04T00:34:51;17.70;;;2.13;;
73100;SDS011;61288;53.446;-2.266;2024-02-04T00:37:16;11.15;;;2.15;;
73100;SDS011;61288;53.446;-2.266;2024-02-04T00:39:42;9.95;;;2.08;;
73100;SDS011;61288;53.446;-2.266;2024-02-04T00:42:07;8.45;;;2.08;;
73100;SDS011;61288;53.446;-2.266;2024-02-04T00:44:33;13.48;;;2.60;;
73100;SDS011;61288;53.446;-2.266;2024-02-04T00:46:58;9.98;;;2.28;;
73100;SDS011;61288;53.446;-2.266;2024-02-04T00:49:24;13.07;;;2.40;;
73100;SDS011;61288;53.446;-2.266;2024-02-04T00:51:51;9.90;;;1.95;;
73100;SDS011;61288;53.446;-2.266;2024-02-04T00:54:17;11.05;;;2.17;;
73100;SDS011;61288;53.446;-2.266;2024-02-04T00:56:42;13.40;;;2.92;;
73100;SDS011;61288;53.446;-2.266;2024-02-04T00:59:07;12.40;;;2.22;;
73100;SDS011;61288;53.446;-2.266;2024-02-04T01:01:33;12.35;;;2.13;;
73100;SDS011;61288;53.446;-2.266;2024-02-04T01:03:59;8.07;;;1.80;;
73100;SDS011;61288;53.446;-2.266;2024-02-04T01:06:24;5.22;;;1.40;;
73100;SDS011;61288;53.446;-2.266;2024-02-04T01:08:50;7.63;;;1.60;;
73100;SDS011;61288;53.446;-2.266;2024-02-04T01:11:16;7.63;;;1.73;;
73100;SDS011;61288;53.446;-2.266;2024-02-04T01:13:42;9.80;;;1.60;;
73100;SDS011;61288;53.446;-2.266;2024-02-04T01:16:08;11.52;;;2.17;;
73100;SDS011;61288;53.446;-2.266;2024-02-04T01:18:35;12.82;;;1.92;;
73100;SDS011;61288;53.446;-2.266;2024-02-04T01:21:01;8.05;;;1.50;;
73100;SDS011;61288;53.446;-2.266;2024-02-04T01:23:27;6.50;;;1.50;;
73100;SDS011;61288;53.446;-2.266;2024-02-04T01:25:52;9.63;;;2.25;;
73100;SDS011;61288;53.446;-2.266;2024-02-04T01:28:18;8.50;;;1.70;;
73100;SDS011;61288;53.446;-2.266;2024-02-04T01:30:46;10.57;;;2.10;;
73100;SDS011;61288;53.446;-2.266;2024-02-04T01:33:12;9.55;;;2.00;;
73100;SDS011;61288;53.446;-2.266;2024-02-04T01:35:37;11.32;;;2.50;;
73100;SDS011;61288;53.446;-2.266;2024-02-04T01:38:03;6.20;;;1.50;;
73100;SDS011;61288;53.446;-2.266;2024-02-04T01:40:29;11.75;;;2.08;;
73100;SDS011;61288;53.446;-2.266;2024-02-04T01:42:54;6.10;;;1.60;;
73100;SDS011;61288;53.446;-2.266;2024-02-04T01:45:21;8.43;;;2.00;;
73100;SDS011;61288;53.446;-2.266;2024-02-04T01:47:47;7.88;;;1.70;;
73100;SDS011;61288;53.446;-2.266;2024-02-04T01:50:14;7.47;;;1.33;;
73100;SDS011;61288;53.446;-2.266;2024-02-04T01:52:41;7.72;;;1.40;;
73100;SDS011;61288;53.446;-2.266;2024-02-04T01:55:08;6.20;;;1.50;;
73100;SDS011;61288;53.446;-2.266;2024-02-04T01:57:34;8.38;;;1.55;;
73100;SDS011;61288;53.446;-2.266;2024-02-04T02:00:00;8.88;;;1.92;;
73100;SDS011;61288;53.446;-2.266;2024-02-04T02:02:25;8.80;;;1.45;;
73100;SDS011;61288;53.446;-2.266;2024-02-04T02:04:51;9.82;;;1.48;;
73100;SDS011;61288;53.446;-2.266;2024-02-04T02:07:17;5.45;;;1.50;;
73100;SDS011;61288;53.446;-2.266;2024-02-04T02:09:47;10.35;;;1.88;;
73100;SDS011;61288;53.446;-2.266;2024-02-04T02:12:25;8.95;;;1.85;;
73100;SDS011;61288;53.446;-2.266;2024-02-04T02:15:14;5.90;;;1.52;;
73100;SDS011;61288;53.446;-2.266;2024-02-04T02:17:57;12.05;;;2.67;;
73100;SDS011;61288;53.446;-2.266;2024-02-04T02:20:30;9.80;;;1.65;;
73100;SDS011;61288;53.446;-2.266;2024-02-04T02:23:12;6.13;;;2.10;;
73100;SDS011;61288;53.446;-2.266;2024-02-04T02:25:42;7.95;;;1.70;;
73100;SDS011;61288;53.446;-2.266;2024-02-04T02:28:11;6.18;;;1.50;;
73100;SDS011;61288;53.446;-2.266;2024-02-04T02:30:40;7.65;;;2.00;;
73100;SDS011;61288;53.446;-2.266;2024-02-04T02:33:05;9.88;;;1.65;;
73100;SDS011;61288;53.446;-2.266;2024-02-04T02:35:33;6.15;;;1.40;;
73100;SDS011;61288;53.446;-2.266;2024-02-04T02:38:03;6.40;;;1.60;;
73100;SDS011;61288;53.446;-2.266;2024-02-04T02:40:46;7.40;;;1.60;;
73100;SDS011;61288;53.446;-2.266;2024-02-04T02:43:14;6.78;;;1.60;;
73100;SDS011;61288;53.446;-2.266;2024-02-04T02:45:42;6.25;;;1.58;;
73100;SDS011;61288;53.446;-2.266;2024-02-04T02:48:10;5.43;;;1.40;;
73100;SDS011;61288;53.446;-2.266;2024-02-04T02:50:37;3.83;;;1.00;;
73100;SDS011;61288;53.446;-2.266;2024-02-04T02:53:03;5.75;;;1.23;;
73100;SDS011;61288;53.446;-2.266;2024-02-04T02:55:29;8.50;;;1.45;;
73100;SDS011;61288;53.446;-2.266;2024-02-04T02:57:55;4.45;;;1.13;;
73100;SDS011;61288;53.446;-2.266;2024-02-04T03:00:21;4.38;;;1.25;;
73100;SDS011;61288;53.446;-2.266;2024-02-04T03:02:47;3.40;;;1.27;;
73100;SDS011;61288;53.446;-2.266;2024-02-04T03:05:15;4.50;;;1.42;;
73100;SDS011;61288;53.446;-2.266;2024-02-04T03:07:41;4.43;;;1.20;;
73100;SDS011;61288;53.446;-2.266;2024-02-04T03:10:06;11.07;;;1.60;;
73100;SDS011;61288;53.446;-2.266;2024-02-04T03:12:33;4.55;;;1.50;;
73100;SDS011;61288;53.446;-2.266;2024-02-04T03:14:58;7.85;;;1.75;;
73100;SDS011;61288;53.446;-2.266;2024-02-04T03:17:24;5.80;;;1.30;;
73100;SDS011;61288;53.446;-2.266;2024-02-04T03:19:49;8.38;;;1.92;;
73100;SDS011;61288;53.446;-2.266;2024-02-04T03:22:17;4.85;;;1.40;;
73100;SDS011;61288;53.446;-2.266;2024-02-04T03:24:43;8.77;;;1.65;;
73100;SDS011;61288;53.446;-2.266;2024-02-04T03:27:08;9.05;;;1.70;;
73100;SDS011;61288;53.446;-2.266;2024-02-04T03:29:34;8.93;;;1.73;;
73100;SDS011;61288;53.446;-2.266;2024-02-04T03:31:59;4.13;;;1.20;;
73100;SDS011;61288;53.446;-2.266;2024-02-04T03:34:25;7.05;;;1.40;;
73100;SDS011;61288;53.446;-2.266;2024-02-04T03:36:50;5.93;;;1.30;;
73100;SDS011;61288;53.446;-2.266;2024-02-04T03:39:16;5.45;;;1.33;;
73100;SDS011;61288;53.446;-2.266;2024-02-04T03:41:41;6.10;;;2.00;;
73100;SDS011;61288;53.446;-2.266;2024-02-04T03:44:07;8.07;;;1.48;;
73100;SDS011;61288;53.446;-2.266;2024-02-04T03:46:32;8.65;;;1.60;;
73100;SDS011;61288;53.446;-2.266;2024-02-04T03:48:58;6.07;;;1.60;;
73100;SDS011;61288;53.446;-2.266;2024-02-04T03:51:23;6.03;;;2.78;;
73100;SDS011;61288;53.446;-2.266;2024-02-04T03:53:50;7.35;;;1.92;;
73100;SDS011;61288;53.446;-2.266;2024-02-04T03:56:16;7.22;;;1.73;;
73100;SDS011;61288;53.446;-2.266;2024-02-04T03:58:42;7.45;;;2.20;;
73100;SDS011;61288;53.446;-2.266;2024-02-04T04:01:11;3.83;;;1.40;;
73100;SDS011;61288;53.446;-2.266;2024-02-04T04:03:40;9.55;;;2.05;;
73100;SDS011;61288;53.446;-2.266;2024-02-04T04:06:09;11.48;;;1.90;;
73100;SDS011;61288;53.446;-2.266;2024-02-04T04:08:35;4.95;;;1.40;;
73100;SDS011;61288;53.446;-2.266;2024-02-04T04:11:01;6.03;;;1.88;;
73100;SDS011;61288;53.446;-2.266;2024-02-04T04:13:27;8.68;;;2.03;;
73100;SDS011;61288;53.446;-2.266;2024-02-04T04:15:53;5.85;;;1.70;;
73100;SDS011;61288;53.446;-2.266;2024-02-04T04:18:19;6.68;;;1.58;;
73100;SDS011;61288;53.446;-2.266;2024-02-04T04:20:44;7.85;;;1.67;;
73100;SDS011;61288;53.446;-2.266;2024-02-04T04:23:09;6.20;;;1.50;;
73100;SDS011;61288;53.446;-2.266;2024-02-04T04:25:35;6.07;;;2.10;;
73100;SDS011;61288;53.446;-2.266;2024-02-04T04:28:01;4.43;;;1.40;;
73100;SDS011;61288;53.446;-2.266;2024-02-04T04:30:26;7.78;;;1.50;;
73100;SDS011;61288;53.446;-2.266;2024-02-04T04:32:51;5.22;;;1.50;;
73100;SDS011;61288;53.446;-2.266;2024-02-04T04:35:17;5.60;;;1.40;;
73100;SDS011;61288;53.446;-2.266;2024-02-04T04:37:42;2.72;;;1.30;;
73100;SDS011;61288;53.446;-2.266;2024-02-04T04:40:08;5.82;;;1.58;;
73100;SDS011;61288;53.446;-2.266;2024-02-04T04:42:34;7.07;;;1.38;;
73100;SDS011;61288;53.446;-2.266;2024-02-04T04:45:00;5.43;;;1.90;;
73100;SDS011;61288;53.446;-2.266;2024-02-04T04:47:25;4.93;;;1.40;;
73100;SDS011;61288;53.446;-2.266;2024-02-04T04:49:51;6.50;;;1.65;;
73100;SDS011;61288;53.446;-2.266;2024-02-04T04:52:16;5.97;;;1.42;;
73100;SDS011;61288;53.446;-2.266;2024-02-04T04:54:42;4.05;;;1.30;;
73100;SDS011;61288;53.446;-2.266;2024-02-04T04:57:07;4.38;;;1.27;;
73100;SDS011;61288;53.446;-2.266;2024-02-04T04:59:33;4.70;;;1.05;;
73100;SDS011;61288;53.446;-2.266;2024-02-04T05:02:01;3.72;;;0.95;;
73100;SDS011;61288;53.446;-2.266;2024-02-04T05:04:27;2.03;;;0.90;;
73100;SDS011;61288;53.446;-2.266;2024-02-04T05:06:52;4.55;;;1.27;;
73100;SDS011;61288;53.446;-2.266;2024-02-04T05:09:18;7.03;;;1.27;;
73100;SDS011;61288;53.446;-2.266;2024-02-04T05:11:44;3.90;;;1.00;;
73100;SDS011;61288;53.446;-2.266;2024-02-04T05:14:09;8.27;;;1.13;;
73100;SDS011;61288;53.446;-2.266;2024-02-04T05:16:35;3.47;;;1.20;;
73100;SDS011;61288;53.446;-2.266;2024-02-04T05:19:01;6.35;;;1.17;;
73100;SDS011;61288;53.446;-2.266;2024-02-04T05:21:27;5.40;;;1.25;;
73100;SDS011;61288;53.446;-2.266;2024-02-04T05:23:52;4.63;;;1.30;;
73100;SDS011;61288;53.446;-2.266;2024-02-04T05:26:18;6.53;;;1.23;;
73100;SDS011;61288;53.446;-2.266;2024-02-04T05:28:44;3.83;;;1.13;;
73100;SDS011;61288;53.446;-2.266;2024-02-04T05:31:09;3.85;;;1.20;;
73100;SDS011;61288;53.446;-2.266;2024-02-04T05:33:35;6.65;;;1.10;;
73100;SDS011;61288;53.446;-2.266;2024-02-04T05:36:07;9.15;;;1.50;;
73100;SDS011;61288;53.446;-2.266;2024-02-04T05:38:32;7.10;;;1.45;;
73100;SDS011;61288;53.446;-2.266;2024-02-04T05:40:59;6.68;;;1.50;;
73100;SDS011;61288;53.446;-2.266;2024-02-04T05:43:24;2.97;;;1.27;;
73100;SDS011;61288;53.446;-2.266;2024-02-04T05:45:50;4.55;;;1.38;;
73100;SDS011;61288;53.446;-2.266;2024-02-04T05:48:15;7.10;;;1.60;;
73100;SDS011;61288;53.446;-2.266;2024-02-04T05:50:41;4.85;;;1.45;;
73100;SDS011;61288;53.446;-2.266;2024-02-04T05:53:07;5.70;;;1.27;;
73100;SDS011;61288;53.446;-2.266;2024-02-04T05:55:32;3.30;;;1.52;;
73100;SDS011;61288;53.446;-2.266;2024-02-04T05:57:57;6.63;;;2.03;;
73100;SDS011;61288;53.446;-2.266;2024-02-04T06:00:23;4.28;;;1.60;;
73100;SDS011;61288;53.446;-2.266;2024-02-04T06:02:49;5.47;;;1.73;;
73100;SDS011;61288;53.446;-2.266;2024-02-04T06:05:14;5.15;;;1.70;;
73100;SDS011;61288;53.446;-2.266;2024-02-04T06:07:42;7.18;;;1.67;;
73100;SDS011;61288;53.446;-2.266;2024-02-04T06:10:14;3.60;;;1.48;;
73100;SDS011;61288;53.446;-2.266;2024-02-04T06:12:39;3.83;;;1.52;;
73100;SDS011;61288;53.446;-2.266;2024-02-04T06:15:15;5.47;;;1.80;;
73100;SDS011;61288;53.446;-2.266;2024-02-04T06:17:41;4.30;;;1.40;;
73100;SDS011;61288;53.446;-2.266;2024-02-04T06:20:07;2.45;;;1.10;;
73100;SDS011;61288;53.446;-2.266;2024-02-04T06:22:39;5.13;;;1.73;;
73100;SDS011;61288;53.446;-2.266;2024-02-04T06:25:04;4.70;;;1.30;;
73100;SDS011;61288;53.446;-2.266;2024-02-04T06:27:30;3.22;;;1.10;;
73100;SDS011;61288;53.446;-2.266;2024-02-04T06:29:56;1.92;;;1.15;;
73100;SDS011;61288;53.446;-2.266;2024-02-04T06:32:22;1.52;;;1.25;;
73100;SDS011;61288;53.446;-2.266;2024-02-04T06:34:49;3.45;;;1.00;;
73100;SDS011;61288;53.446;-2.266;2024-02-04T06:37:16;2.10;;;1.10;;
73100;SDS011;61288;53.446;-2.266;2024-02-04T06:39:42;6.25;;;1.30;;
73100;SDS011;61288;53.446;-2.266;2024-02-04T06:42:07;1.42;;;1.00;;
73100;SDS011;61288;53.446;-2.266;2024-02-04T06:44:33;2.40;;;1.20;;
73100;SDS011;61288;53.446;-2.266;2024-02-04T06:46:58;3.53;;;1.10;;
73100;SDS011;61288;53.446;-2.266;2024-02-04T06:49:24;1.52;;;1.00;;
73100;SDS011;61288;53.446;-2.266;2024-02-04T06:51:51;6.50;;;1.35;;
73100;SDS011;61288;53.446;-2.266;2024-02-04T06:54:21;3.08;;;0.90;;
73100;SDS011;61288;53.446;-2.266;2024-02-04T06:56:47;2.47;;;0.98;;
73100;SDS011;61288;53.446;-2.266;2024-02-04T06:59:13;6.10;;;1.33;;
73100;SDS011;61288;53.446;-2.266;2024-02-04T07:01:40;2.63;;;1.17;;
73100;SDS011;61288;53.446;-2.266;2024-02-04T07:04:06;2.83;;;0.90;;
73100;SDS011;61288;53.446;-2.266;2024-02-04T07:06:31;2.28;;;1.00;;
73100;SDS011;61288;53.446;-2.266;2024-02-04T07:08:57;1.77;;;1.02;;
73100;SDS011;61288;53.446;-2.266;2024-02-04T07:11:24;1.48;;;0.90;;
73100;SDS011;61288;53.446;-2.266;2024-02-04T07:13:49;2.28;;;0.90;;
73100;SDS011;61288;53.446;-2.266;2024-02-04T07:16:19;2.08;;;1.00;;
73100;SDS011;61288;53.446;-2.266;2024-02-04T07:18:44;1.67;;;1.00;;
73100;SDS011;61288;53.446;-2.266;2024-02-04T07:21:10;3.25;;;1.00;;
73100;SDS011;61288;53.446;-2.266;2024-02-04T07:23:38;1.17;;;0.88;;
73100;SDS011;61288;53.446;-2.266;2024-02-04T07:26:04;3.00;;;1.35;;
73100;SDS011;61288;53.446;-2.266;2024-02-04T07:28:29;1.58;;;0.95;;
73100;SDS011;61288;53.446;-2.266;2024-02-04T07:30:54;4.03;;;1.20;;
73100;SDS011;61288;53.446;-2.266;2024-02-04T07:33:20;2.58;;;1.13;;
73100;SDS011;61288;53.446;-2.266;2024-02-04T07:35:45;1.83;;;1.45;;
73100;SDS011;61288;53.446;-2.266;2024-02-04T07:38:11;6.22;;;1.20;;
73100;SDS011;61288;53.446;-2.266;2024-02-04T07:40:36;4.38;;;1.15;;
73100;SDS011;61288;53.446;-2.266;2024-02-04T07:43:02;2.25;;;0.98;;
73100;SDS011;61288;53.446;-2.266;2024-02-04T07:45:28;2.63;;;1.40;;
73100;SDS011;61288;53.446;-2.266;2024-02-04T07:47:56;3.88;;;1.30;;
73100;SDS011;61288;53.446;-2.266;2024-02-04T07:50:21;3.80;;;1.38;;
73100;SDS011;61288;53.446;-2.266;2024-02-04T07:52:47;2.38;;;1.20;;
73100;SDS011;61288;53.446;-2.266;2024-02-04T07:55:22;7.18;;;1.60;;
73100;SDS011;61288;53.446;-2.266;2024-02-04T07:57:47;6.05;;;1.40;;
73100;SDS011;61288;53.446;-2.266;2024-02-04T08:00:13;5.38;;;1.60;;
73100;SDS011;61288;53.446;-2.266;2024-02-04T08:02:38;3.08;;;1.27;;
73100;SDS011;61288;53.446;-2.266;2024-02-04T08:05:04;5.03;;;1.83;;
73100;SDS011;61288;53.446;-2.266;2024-02-04T08:07:30;5.53;;;1.60;;
73100;SDS011;61288;53.446;-2.266;2024-02-04T08:09:56;4.63;;;1.65;;
73100;SDS011;61288;53.446;-2.266;2024-02-04T08:12:27;4.20;;;1.65;;
73100;SDS011;61288;53.446;-2.266;2024-02-04T08:14:53;4.93;;;1.63;;
73100;SDS011;61288;53.446;-2.266;2024-02-04T08:17:18;3.33;;;1.77;;
73100;SDS011;61288;53.446;-2.266;2024-02-04T08:19:44;7.90;;;1.70;;
73100;SDS011;61288;53.446;-2.266;2024-02-04T08:22:09;5.72;;;1.80;;
73100;SDS011;61288;53.446;-2.266;2024-02-04T08:24:35;4.65;;;1.70;;
73100;SDS011;61288;53.446;-2.266;2024-02-04T08:27:01;5.30;;;1.60;;
73100;SDS011;61288;53.446;-2.266;2024-02-04T08:29:27;10.85;;;1.90;;
73100;SDS011;61288;53.446;-2.266;2024-02-04T08:31:52;6.07;;;1.85;;
73100;SDS011;61288;53.446;-2.266;2024-02-04T08:34:18;2.97;;;1.35;;
73100;SDS011;61288;53.446;-2.266;2024-02-04T08:36:52;5.72;;;1.58;;
73100;SDS011;61288;53.446;-2.266;2024-02-04T08:39:18;4.20;;;1.20;;
73100;SDS011;61288;53.446;-2.266;2024-02-04T08:41:43;5.47;;;1.25;;
73100;SDS011;61288;53.446;-2.266;2024-02-04T08:44:09;7.90;;;1.45;;
73100;SDS011;61288;53.446;-2.266;2024-02-04T08:46:34;3.08;;;1.27;;
73100;SDS011;61288;53.446;-2.266;2024-02-04T08:48:59;2.42;;;1.27;;
73100;SDS011;61288;53.446;-2.266;2024-02-04T08:51:26;2.83;;;1.10;;
73100;SDS011;61288;53.446;-2.266;2024-02-04T08:53:54;2.17;;;1.30;;
73100;SDS011;61288;53.446;-2.266;2024-02-04T08:56:20;2.35;;;1.23;;
73100;SDS011;61288;53.446;-2.266;2024-02-04T08:58:45;2.03;;;1.40;;
73100;SDS011;61288;53.446;-2.266;2024-02-04T09:01:11;1.88;;;1.23;;
73100;SDS011;61288;53.446;-2.266;2024-02-04T09:03:36;1.77;;;0.90;;
73100;SDS011;61288;53.446;-2.266;2024-02-04T09:06:02;6.20;;;0.93;;
73100;SDS011;61288;53.446;-2.266;2024-02-04T09:08:33;2.10;;;0.80;;
73100;SDS011;61288;53.446;-2.266;2024-02-04T09:10:59;3.25;;;1.08;;
73100;SDS011;61288;53.446;-2.266;2024-02-04T09:13:25;1.05;;;0.70;;
73100;SDS011;61288;53.446;-2.266;2024-02-04T09:15:51;2.75;;;1.02;;
73100;SDS011;61288;53.446;-2.266;2024-02-04T09:18:17;3.15;;;1.05;;
73100;SDS011;61288;53.446;-2.266;2024-02-04T09:20:48;1.33;;;0.95;;
73100;SDS011;61288;53.446;-2.266;2024-02-04T09:25:38;4.65;;;0.95;;
73100;SDS011;61288;53.446;-2.266;2024-02-04T09:28:04;3.70;;;1.10;;
73100;SDS011;61288;53.446;-2.266;2024-02-04T09:30:30;1.67;;;0.80;;
73100;SDS011;61288;53.446;-2.266;2024-02-04T09:32:55;2.60;;;0.88;;
73100;SDS011;61288;53.446;-2.266;2024-02-04T09:35:21;2.75;;;1.27;;
73100;SDS011;61288;53.446;-2.266;2024-02-04T09:37:46;2.55;;;1.00;;
73100;SDS011;61288;53.446;-2.266;2024-02-04T09:40:12;2.05;;;1.00;;
73100;SDS011;61288;53.446;-2.266;2024-02-04T09:42:38;1.65;;;0.85;;
73100;SDS011;61288;53.446;-2.266;2024-02-04T09:45:03;3.10;;;1.08;;
73100;SDS011;61288;53.446;-2.266;2024-02-04T09:47:29;3.20;;;1.10;;
73100;SDS011;61288;53.446;-2.266;2024-02-04T09:49:57;1.52;;;1.05;;
73100;SDS011;61288;53.446;-2.266;2024-02-04T09:52:25;1.42;;;0.80;;
73100;SDS011;61288;53.446;-2.266;2024-02-04T09:55:01;1.33;;;0.85;;
73100;SDS011;61288;53.446;-2.266;2024-02-04T09:57:41;2.90;;;0.88;;
73100;SDS011;61288;53.446;-2.266;2024-02-04T10:00:09;2.17;;;1.23;;
73100;SDS011;61288;53.446;-2.266;2024-02-04T10:02:35;3.95;;;1.10;;
73100;SDS011;61288;53.446;-2.266;2024-02-04T10:05:01;4.03;;;1.20;;
73100;SDS011;61288;53.446;-2.266;2024-02-04T10:07:28;2.42;;;1.15;;
73100;SDS011;61288;53.446;-2.266;2024-02-04T10:09:54;2.75;;;1.30;;
73100;SDS011;61288;53.446;-2.266;2024-02-04T10:12:20;3.05;;;1.38;;
73100;SDS011;61288;53.446;-2.266;2024-02-04T10:14:50;5.97;;;1.95;;
73100;SDS011;61288;53.446;-2.266;2024-02-04T10:17:16;3.83;;;1.48;;
73100;SDS011;61288;53.446;-2.266;2024-02-04T10:19:41;4.75;;;1.67;;
73100;SDS011;61288;53.446;-2.266;2024-02-04T10:22:07;8.70;;;1.90;;
73100;SDS011;61288;53.446;-2.266;2024-02-04T10:24:32;6.07;;;1.90;;
73100;SDS011;61288;53.446;-2.266;2024-02-04T10:26:58;7.50;;;2.25;;
73100;SDS011;61288;53.446;-2.266;2024-02-04T10:29:23;3.75;;;1.77;;
73100;SDS011;61288;53.446;-2.266;2024-02-04T10:31:53;9.13;;;2.00;;
73100;SDS011;61288;53.446;-2.266;2024-02-04T10:34:19;7.03;;;1.92;;
73100;SDS011;61288;53.446;-2.266;2024-02-04T10:36:50;4.25;;;1.55;;
73100;SDS011;61288;53.446;-2.266;2024-02-04T10:39:16;5.15;;;1.52;;
73100;SDS011;61288;53.446;-2.266;2024-02-04T10:41:47;7.50;;;1.67;;
73100;SDS011;61288;53.446;-2.266;2024-02-04T10:44:18;4.35;;;2.00;;
73100;SDS011;61288;53.446;-2.266;2024-02-04T10:46:47;4.18;;;1.55;;
73100;SDS011;61288;53.446;-2.266;2024-02-04T10:49:18;4.38;;;1.70;;
73100;SDS011;61288;53.446;-2.266;2024-02-04T10:51:45;6.07;;;1.73;;
73100;SDS011;61288;53.446;-2.266;2024-02-04T10:54:11;8.35;;;1.80;;
73100;SDS011;61288;53.446;-2.266;2024-02-04T10:56:45;8.07;;;1.80;;
73100;SDS011;61288;53.446;-2.266;2024-02-04T11:01:40;9.32;;;2.05;;
73100;SDS011;61288;53.446;-2.266;2024-02-04T11:04:16;6.45;;;1.60;;
73100;SDS011;61288;53.446;-2.266;2024-02-04T11:06:41;4.85;;;1.48;;
73100;SDS011;61288;53.446;-2.266;2024-02-04T11:09:13;5.05;;;1.42;;
73100;SDS011;61288;53.446;-2.266;2024-02-04T11:11:42;6.47;;;1.67;;
73100;SDS011;61288;53.446;-2.266;2024-02-04T11:14:10;7.88;;;1.55;;
73100;SDS011;61288;53.446;-2.266;2024-02-04T11:19:27;6.63;;;1.60;;
73100;SDS011;61288;53.446;-2.266;2024-02-04T11:27:30;4.85;;;1.63;;
73100;SDS011;61288;53.446;-2.266;2024-02-04T11:29:56;6.20;;;1.50;;
73100;SDS011;61288;53.446;-2.266;2024-02-04T11:32:23;7.90;;;1.63;;
73100;SDS011;61288;53.446;-2.266;2024-02-04T11:34:50;7.47;;;1.80;;
73100;SDS011;61288;53.446;-2.266;2024-02-04T11:37:17;5.95;;;1.75;;
73100;SDS011;61288;53.446;-2.266;2024-02-04T11:39:59;9.98;;;1.70;;
73100;SDS011;61288;53.446;-2.266;2024-02-04T11:42:25;6.80;;;1.73;;
73100;SDS011;61288;53.446;-2.266;2024-02-04T11:45:13;5.60;;;1.90;;
73100;SDS011;61288;53.446;-2.266;2024-02-04T11:47:39;5.00;;;1.60;;
73100;SDS011;61288;53.446;-2.266;2024-02-04T11:50:06;5.50;;;1.63;;
73100;SDS011;61288;53.446;-2.266;2024-02-04T11:52:37;6.53;;;1.50;;
73100;SDS011;61288;53.446;-2.266;2024-02-04T11:55:04;3.15;;;1.33;;
73100;SDS011;61288;53.446;-2.266;2024-02-04T11:57:32;3.13;;;1.35;;
73100;SDS011;61288;53.446;-2.266;2024-02-04T11:59:57;5.68;;;1.30;;
73100;SDS011;61288;53.446;-2.266;2024-02-04T12:02:23;4.85;;;1.33;;
73100;SDS011;61288;53.446;-2.266;2024-02-04T12:04:49;1.95;;;1.17;;
73100;SDS011;61288;53.446;-2.266;2024-02-04T12:07:14;4.47;;;1.40;;
73100;SDS011;61288;53.446;-2.266;2024-02-04T12:09:40;3.50;;;1.15;;
73100;SDS011;61288;53.446;-2.266;2024-02-04T12:12:11;3.90;;;1.38;;
73100;SDS011;61288;53.446;-2.266;2024-02-04T12:14:38;7.30;;;1.27;;
73100;SDS011;61288;53.446;-2.266;2024-02-04T12:17:11;5.32;;;1.38;;
73100;SDS011;61288;53.446;-2.266;2024-02-04T12:19:38;5.30;;;1.33;;
73100;SDS011;61288;53.446;-2.266;2024-02-04T12:22:04;2.60;;;1.17;;
73100;SDS011;61288;53.446;-2.266;2024-02-04T12:24:43;4.63;;;1.15;;
73100;SDS011;61288;53.446;-2.266;2024-02-04T12:27:10;4.95;;;1.10;;
73100;SDS011;61288;53.446;-2.266;2024-02-04T12:29:35;5.05;;;1.30;;
73100;SDS011;61288;53.446;-2.266;2024-02-04T12:32:01;7.13;;;1.40;;
73100;SDS011;61288;53.446;-2.266;2024-02-04T12:34:34;5.50;;;1.35;;
73100;SDS011;61288;53.446;-2.266;2024-02-04T12:37:02;6.57;;;1.20;;
73100;SDS011;61288;53.446;-2.266;2024-02-04T12:39:29;4.43;;;1.33;;
73100;SDS011;61288;53.446;-2.266;2024-02-04T12:41:58;4.22;;;1.00;;
73100;SDS011;61288;53.446;-2.266;2024-02-04T12:44:23;4.35;;;1.10;;
73100;SDS011;61288;53.446;-2.266;2024-02-04T12:46:51;3.15;;;1.00;;
73100;SDS011;61288;53.446;-2.266;2024-02-04T12:49:21;6.22;;;1.10;;
73100;SDS011;61288;53.446;-2.266;2024-02-04T12:51:47;4.50;;;1.13;;
73100;SDS011;61288;53.446;-2.266;2024-02-04T12:54:17;4.45;;;0.95;;
73100;SDS011;61288;53.446;-2.266;2024-02-04T12:56:53;2.90;;;1.15;;
73100;SDS011;61288;53.446;-2.266;2024-02-04T12:59:32;1.45;;;0.90;;
73100;SDS011;61288;53.446;-2.266;2024-02-04T13:02:01;2.58;;;1.02;;
73100;SDS011;61288;53.446;-2.266;2024-02-04T13:04:36;2.47;;;1.35;;
73100;SDS011;61288;53.446;-2.266;2024-02-04T13:07:12;1.25;;;1.10;;
73100;SDS011;61288;53.446;-2.266;2024-02-04T13:09:42;2.92;;;1.17;;
73100;SDS011;61288;53.446;-2.266;2024-02-04T13:12:22;4.35;;;1.10;;
73100;SDS011;61288;53.446;-2.266;2024-02-04T13:14:49;1.92;;;1.00;;
73100;SDS011;61288;53.446;-2.266;2024-02-04T13:17:15;1.92;;;1.08;;
73100;SDS011;61288;53.446;-2.266;2024-02-04T13:19:40;3.40;;;0.90;;
73100;SDS011;61288;53.446;-2.266;2024-02-04T13:22:07;1.17;;;1.00;;
73100;SDS011;61288;53.446;-2.266;2024-02-04T13:24:34;4.07;;;1.00;;
73100;SDS011;61288;53.446;-2.266;2024-02-04T13:27:00;4.63;;;1.27;;
73100;SDS011;61288;53.446;-2.266;2024-02-04T13:29:31;9.40;;;1.40;;
73100;SDS011;61288;53.446;-2.266;2024-02-04T13:31:57;3.92;;;1.30;;
73100;SDS011;61288;53.446;-2.266;2024-02-04T13:34:25;2.65;;;1.20;;
73100;SDS011;61288;53.446;-2.266;2024-02-04T13:36:50;3.33;;;1.17;;
73100;SDS011;61288;53.446;-2.266;2024-02-04T13:39:22;4.65;;;1.20;;
73100;SDS011;61288;53.446;-2.266;2024-02-04T13:41:48;4.15;;;1.20;;
73100;SDS011;61288;53.446;-2.266;2024-02-04T13:44:13;4.63;;;1.10;;
73100;SDS011;61288;53.446;-2.266;2024-02-04T13:46:39;2.55;;;1.13;;
73100;SDS011;61288;53.446;-2.266;2024-02-04T13:49:07;4.15;;;1.20;;
73100;SDS011;61288;53.446;-2.266;2024-02-04T13:51:33;4.28;;;1.23;;
73100;SDS011;61288;53.446;-2.266;2024-02-04T13:53:58;4.93;;;1.45;;
73100;SDS011;61288;53.446;-2.266;2024-02-04T13:56:24;8.55;;;1.55;;
73100;SDS011;61288;53.446;-2.266;2024-02-04T13:58:49;3.08;;;1.10;;
73100;SDS011;61288;53.446;-2.266;2024-02-04T14:01:15;7.50;;;1.40;;
73100;SDS011;61288;53.446;-2.266;2024-02-04T14:03:41;4.72;;;1.20;;
73100;SDS011;61288;53.446;-2.266;2024-02-04T14:06:15;6.65;;;1.52;;
73100;SDS011;61288;53.446;-2.266;2024-02-04T14:08:41;3.05;;;1.02;;
73100;SDS011;61288;53.446;-2.266;2024-02-04T14:11:14;6.40;;;1.48;;
73100;SDS011;61288;53.446;-2.266;2024-02-04T14:13:40;9.27;;;1.80;;
73100;SDS011;61288;53.446;-2.266;2024-02-04T14:16:07;7.60;;;1.50;;
73100;SDS011;61288;53.446;-2.266;2024-02-04T14:18:34;4.43;;;1.30;;
73100;SDS011;61288;53.446;-2.266;2024-02-04T14:20:59;4.15;;;1.10;;
73100;SDS011;61288;53.446;-2.266;2024-02-04T14:23:25;6.55;;;1.67;;
73100;SDS011;61288;53.446;-2.266;2024-02-04T14:25:50;8.35;;;1.60;;
73100;SDS011;61288;53.446;-2.266;2024-02-04T14:28:18;8.90;;;1.45;;
73100;SDS011;61288;53.446;-2.266;2024-02-04T14:30:45;6.18;;;1.98;;
73100;SDS011;61288;53.446;-2.266;2024-02-04T14:33:10;5.28;;;1.52;;
73100;SDS011;61288;53.446;-2.266;2024-02-04T14:35:36;6.68;;;1.50;;
73100;SDS011;61288;53.446;-2.266;2024-02-04T14:38:05;6.22;;;1.73;;
73100;SDS011;61288;53.446;-2.266;2024-02-04T14:40:30;7.55;;;1.50;;
73100;SDS011;61288;53.446;-2.266;2024-02-04T14:42:56;8.00;;;1.90;;
73100;SDS011;61288;53.446;-2.266;2024-02-04T14:45:21;8.65;;;2.90;;